createdAt,value
2023-04-26T00:00:09.189Z,4.15
2023-04-26T00:02:37.776Z,7.32
2023-04-26T00:05:08.030Z,7.53
2023-04-26T00:07:39.193Z,3.38
2023-04-26T00:10:08.625Z,3.35
2023-04-26T00:12:37.043Z,3.33
2023-04-26T00:15:09.622Z,3.83
2023-04-26T00:17:37.899Z,3.65
2023-04-26T00:20:09.433Z,4.88
2023-04-26T00:22:39.807Z,3.92
2023-04-26T00:25:08.754Z,3.88
2023-04-26T00:27:36.855Z,4.70
2023-04-26T00:30:05.604Z,10.38
2023-04-26T00:32:35.566Z,4.18
2023-04-26T00:35:06.398Z,4.20
2023-04-26T00:37:34.650Z,4.35
2023-04-26T00:40:06.245Z,5.72
2023-04-26T00:42:34.428Z,6.30
2023-04-26T00:45:02.579Z,4.93
2023-04-26T00:47:31.929Z,3.80
2023-04-26T00:50:00.743Z,3.50
2023-04-26T00:52:29.258Z,3.80
2023-04-26T00:54:57.814Z,3.85
2023-04-26T00:57:27.388Z,3.88
2023-04-26T00:59:55.591Z,5.25
2023-04-26T01:02:24.203Z,4.53
2023-04-26T01:04:52.510Z,3.85
2023-04-26T01:07:20.629Z,3.88
2023-04-26T01:09:51.042Z,3.20
2023-04-26T01:12:20.676Z,3.70
2023-04-26T01:14:50.343Z,2.83
2023-04-26T01:17:20.182Z,3.00
2023-04-26T01:19:49.415Z,2.53
2023-04-26T01:22:18.004Z,2.35
2023-04-26T01:24:51.904Z,2.30
2023-04-26T01:27:20.161Z,3.30
2023-04-26T01:29:48.230Z,2.30
2023-04-26T01:32:16.424Z,2.03
2023-04-26T01:34:44.658Z,2.42
2023-04-26T01:37:12.793Z,3.95
2023-04-26T01:39:40.893Z,2.40
2023-04-26T01:42:10.382Z,2.78
2023-04-26T01:44:38.491Z,3.53
2023-04-26T01:47:07.024Z,3.08
2023-04-26T01:49:35.322Z,2.78
2023-04-26T01:52:03.586Z,3.42
2023-04-26T01:54:31.890Z,3.47
2023-04-26T01:56:59.976Z,5.05
2023-04-26T01:59:29.471Z,4.75
2023-04-26T02:01:57.743Z,3.10
2023-04-26T02:04:25.909Z,3.47
2023-04-26T02:06:53.985Z,3.85
2023-04-26T02:09:22.057Z,4.50
2023-04-26T02:11:50.239Z,4.45
2023-04-26T02:14:18.384Z,4.50
2023-04-26T02:16:48.152Z,4.65
2023-04-26T02:19:16.274Z,3.33
2023-04-26T02:21:56.055Z,2.92
2023-04-26T02:24:24.550Z,3.15
2023-04-26T02:26:54.734Z,3.67
2023-04-26T02:29:36.264Z,3.35
2023-04-26T02:32:12.214Z,3.65
2023-04-26T02:34:40.689Z,3.75
2023-04-26T02:37:09.105Z,3.08
2023-04-26T02:39:37.235Z,3.10
2023-04-26T02:42:05.436Z,3.05
2023-04-26T02:44:33.525Z,4.05
2023-04-26T02:47:02.025Z,3.13
2023-04-26T02:49:32.128Z,7.90
2023-04-26T02:52:00.322Z,2.67
2023-04-26T02:54:28.512Z,4.40
2023-04-26T02:56:56.585Z,3.22
2023-04-26T02:59:24.657Z,3.17
2023-04-26T03:01:52.847Z,3.13
2023-04-26T03:04:20.919Z,3.60
2023-04-26T03:06:50.346Z,3.35
2023-04-26T03:09:18.498Z,3.33
2023-04-26T03:11:48.913Z,3.40
2023-04-26T03:14:18.137Z,3.30
2023-04-26T03:16:46.406Z,3.00
2023-04-26T03:19:14.604Z,3.25
2023-04-26T03:21:42.822Z,3.53
2023-04-26T03:24:12.868Z,3.50
2023-04-26T03:26:41.182Z,3.47
2023-04-26T03:29:09.400Z,3.38
2023-04-26T03:31:37.633Z,3.28
2023-04-26T03:34:06.418Z,3.45
2023-04-26T03:36:34.748Z,2.72
2023-04-26T03:39:02.916Z,3.72
2023-04-26T03:41:33.380Z,3.70
2023-04-26T03:44:01.510Z,4.00
2023-04-26T03:46:29.676Z,3.72
2023-04-26T03:48:57.843Z,4.07
2023-04-26T03:51:27.560Z,3.97
2023-04-26T03:53:55.717Z,4.05
2023-04-26T03:56:23.782Z,3.72
2023-04-26T03:58:53.549Z,4.32
2023-04-26T04:01:22.025Z,4.13
2023-04-26T04:03:50.516Z,4.57
2023-04-26T04:06:18.784Z,5.07
2023-04-26T04:08:46.864Z,5.28
2023-04-26T04:11:16.329Z,5.13
2023-04-26T04:13:44.911Z,5.13
2023-04-26T04:16:14.556Z,4.45
2023-04-26T04:18:43.032Z,4.75
2023-04-26T04:21:11.131Z,5.10
2023-04-26T04:23:39.972Z,4.75
2023-04-26T04:26:08.134Z,5.25
2023-04-26T04:28:36.185Z,4.72
2023-04-26T04:31:04.289Z,5.40
2023-04-26T04:33:36.669Z,5.50
2023-04-26T04:36:04.991Z,5.40
2023-04-26T04:38:33.087Z,5.15
2023-04-26T04:41:01.232Z,5.25
2023-04-26T04:43:29.279Z,5.10
2023-04-26T04:45:58.692Z,5.45
2023-04-26T04:48:26.898Z,5.53
2023-04-26T04:50:56.508Z,5.38
2023-04-26T04:53:24.648Z,6.13
2023-04-26T04:55:52.796Z,6.32
2023-04-26T04:58:22.293Z,5.80
2023-04-26T05:00:51.589Z,8.45
2023-04-26T05:03:19.915Z,6.47
2023-04-26T05:05:48.054Z,6.60
2023-04-26T05:08:17.912Z,6.82
2023-04-26T05:10:46.942Z,7.53
2023-04-26T05:13:15.011Z,6.40
2023-04-26T05:15:43.099Z,6.75
2023-04-26T05:18:11.358Z,7.57
2023-04-26T05:20:40.174Z,7.53
2023-04-26T05:23:08.310Z,8.15
2023-04-26T05:25:39.688Z,8.25
2023-04-26T05:28:12.655Z,8.45
2023-04-26T05:30:40.924Z,8.43
2023-04-26T05:33:09.156Z,7.80
2023-04-26T05:35:37.398Z,8.57
2023-04-26T05:38:05.438Z,7.65
2023-04-26T05:40:33.520Z,8.40
2023-04-26T05:43:03.215Z,9.40
2023-04-26T05:45:31.478Z,8.20
2023-04-26T05:47:59.674Z,8.45
2023-04-26T05:50:27.998Z,8.43
2023-04-26T05:52:56.186Z,8.15
2023-04-26T05:55:24.774Z,8.75
2023-04-26T05:57:52.999Z,8.55
2023-04-26T06:00:24.003Z,8.38
2023-04-26T06:02:52.265Z,8.13
2023-04-26T06:05:20.936Z,9.65
2023-04-26T06:07:49.174Z,8.38
2023-04-26T06:10:17.355Z,7.90
2023-04-26T06:12:45.992Z,8.15
2023-04-26T06:15:14.231Z,8.95
2023-04-26T06:17:43.769Z,8.68
2023-04-26T06:20:12.359Z,9.25
2023-04-26T06:22:40.523Z,8.70
2023-04-26T06:25:09.619Z,8.63
2023-04-26T06:27:39.167Z,7.95
2023-04-26T06:30:09.175Z,8.40
2023-04-26T06:32:37.492Z,9.63
2023-04-26T06:35:07.910Z,8.93
2023-04-26T06:37:36.325Z,10.98
2023-04-26T06:40:04.833Z,9.70
2023-04-26T06:42:32.964Z,8.18
2023-04-26T06:45:01.111Z,11.93
2023-04-26T06:47:29.238Z,9.85
2023-04-26T06:49:57.732Z,10.30
2023-04-26T06:52:27.878Z,10.23
2023-04-26T06:54:58.066Z,9.45
2023-04-26T06:57:26.206Z,9.18
2023-04-26T06:59:54.348Z,11.15
2023-04-26T07:02:23.754Z,9.45
2023-04-26T07:04:52.388Z,9.57
2023-04-26T07:07:20.741Z,10.20
2023-04-26T07:09:50.235Z,9.25
2023-04-26T07:12:18.339Z,9.63
2023-04-26T07:14:46.406Z,10.45
2023-04-26T07:17:14.604Z,10.15
2023-04-26T07:19:42.662Z,9.90
2023-04-26T07:22:11.158Z,10.70
2023-04-26T07:24:39.265Z,9.38
2023-04-26T07:27:08.838Z,9.52
2023-04-26T07:29:36.934Z,9.65
2023-04-26T07:32:05.362Z,10.15
2023-04-26T07:34:33.613Z,10.45
2023-04-26T07:37:01.821Z,9.73
2023-04-26T07:39:29.912Z,10.13
2023-04-26T07:41:58.091Z,10.40
2023-04-26T07:44:27.837Z,10.50
2023-04-26T07:46:56.032Z,11.23
2023-04-26T07:49:26.544Z,10.27
2023-04-26T07:51:56.439Z,10.40
2023-04-26T07:54:24.605Z,9.52
2023-04-26T07:56:52.768Z,11.23
2023-04-26T07:59:20.837Z,10.40
2023-04-26T08:01:50.385Z,9.55
2023-04-26T08:04:19.444Z,11.15
2023-04-26T08:06:48.743Z,10.70
2023-04-26T08:09:17.155Z,12.60
2023-04-26T08:11:45.257Z,10.25
2023-04-26T08:14:13.399Z,9.77
2023-04-26T08:16:41.763Z,8.88
2023-04-26T08:19:11.303Z,14.80
2023-04-26T08:21:39.432Z,10.45
2023-04-26T08:24:08.183Z,8.95
2023-04-26T08:26:36.245Z,9.50
2023-04-26T08:29:04.508Z,8.45
2023-04-26T08:31:32.659Z,8.00
2023-04-26T08:34:00.821Z,8.75
2023-04-26T08:36:32.492Z,8.35
2023-04-26T08:39:00.613Z,7.78
2023-04-26T08:41:28.972Z,8.07
2023-04-26T08:43:59.602Z,8.13
2023-04-26T08:46:28.964Z,8.77
2023-04-26T08:49:12.916Z,7.57
2023-04-26T08:51:43.032Z,7.95
2023-04-26T08:54:12.595Z,8.13
2023-04-26T08:56:44.307Z,8.38
2023-04-26T08:59:14.941Z,7.80
2023-04-26T09:01:45.583Z,11.25
2023-04-26T09:04:14.376Z,8.73
2023-04-26T09:06:44.868Z,8.18
2023-04-26T09:09:14.888Z,8.20
2023-04-26T09:11:56.605Z,8.43
2023-04-26T09:14:25.205Z,8.40
2023-04-26T09:16:54.111Z,8.80
2023-04-26T09:19:37.157Z,8.90
2023-04-26T09:22:07.549Z,8.77
2023-04-26T09:24:49.128Z,8.88
2023-04-26T09:27:17.681Z,9.50
2023-04-26T09:30:00.041Z,9.48
2023-04-26T09:32:29.321Z,9.05
2023-04-26T09:34:57.506Z,9.85
2023-04-26T09:37:27.091Z,9.18
2023-04-26T09:39:55.488Z,9.35
2023-04-26T09:42:23.620Z,8.50
2023-04-26T09:44:51.947Z,9.13
2023-04-26T09:47:23.230Z,8.93
2023-04-26T09:49:52.773Z,8.55
2023-04-26T09:52:21.675Z,9.60
2023-04-26T09:54:53.249Z,8.73
2023-04-26T09:57:23.739Z,8.38
2023-04-26T09:59:55.383Z,8.25
2023-04-26T10:02:26.469Z,9.15
2023-04-26T10:04:56.918Z,8.27
2023-04-26T10:07:26.756Z,7.97
2023-04-26T10:09:58.588Z,7.80
2023-04-26T10:12:26.761Z,7.80
2023-04-26T10:14:54.881Z,7.32
2023-04-26T10:17:23.468Z,7.55
2023-04-26T10:19:56.586Z,7.70
2023-04-26T10:22:27.084Z,7.38
2023-04-26T10:24:57.144Z,7.68
2023-04-26T10:27:51.135Z,7.63
2023-04-26T10:30:21.176Z,7.00
2023-04-26T10:33:16.628Z,6.90
2023-04-26T10:36:03.943Z,6.60
2023-04-26T10:38:32.819Z,6.95
2023-04-26T10:41:33.609Z,7.07
2023-04-26T10:44:17.732Z,6.63
2023-04-26T10:46:52.498Z,6.45
2023-04-26T10:49:25.621Z,6.88
2023-04-26T10:52:14.913Z,6.95
2023-04-26T10:54:50.611Z,6.95
2023-04-26T10:57:20.923Z,5.85
2023-04-26T11:00:25.240Z,6.15
2023-04-26T11:02:58.784Z,5.25
2023-04-26T11:05:55.398Z,6.72
2023-04-26T11:08:28.215Z,6.43
2023-04-26T11:11:06.832Z,6.35
2023-04-26T11:13:38.161Z,6.38
2023-04-26T11:16:09.533Z,6.40
2023-04-26T11:18:39.953Z,6.18
2023-04-26T11:21:08.408Z,5.38
2023-04-26T11:23:37.744Z,6.68
2023-04-26T11:26:08.417Z,5.75
2023-04-26T11:28:39.495Z,5.38
2023-04-26T11:31:08.672Z,4.80
2023-04-26T11:33:37.113Z,4.30
2023-04-26T11:36:05.751Z,4.55
2023-04-26T11:38:33.842Z,4.70
2023-04-26T11:41:03.528Z,4.78
2023-04-26T11:43:35.796Z,4.85
2023-04-26T11:46:06.832Z,5.40
2023-04-26T11:48:36.752Z,5.13
2023-04-26T11:51:06.235Z,4.97
2023-04-26T11:53:38.384Z,4.50
2023-04-26T11:56:14.428Z,4.38
2023-04-26T11:58:45.797Z,5.18
2023-04-26T12:01:22.200Z,5.07
2023-04-26T12:03:53.155Z,8.75
2023-04-26T12:06:27.058Z,7.85
2023-04-26T12:08:55.269Z,7.47
2023-04-26T12:11:23.428Z,5.90
2023-04-26T12:13:51.558Z,5.80
2023-04-26T12:16:26.156Z,5.25
2023-04-26T12:18:55.475Z,5.20
2023-04-26T12:21:24.462Z,4.80
2023-04-26T12:23:52.585Z,5.57
2023-04-26T12:26:20.810Z,5.10
2023-04-26T12:28:49.206Z,5.07
2023-04-26T12:31:17.328Z,5.68
2023-04-26T12:33:46.884Z,5.88
2023-04-26T12:36:15.262Z,5.57
2023-04-26T12:38:43.418Z,5.22
2023-04-26T12:41:11.494Z,4.70
2023-04-26T12:43:39.696Z,4.60
2023-04-26T12:46:07.838Z,4.72
2023-04-26T12:48:36.277Z,4.60
2023-04-26T12:51:06.938Z,4.43
2023-04-26T12:53:35.128Z,4.97
2023-04-26T12:56:03.517Z,4.55
2023-04-26T12:58:31.598Z,4.63
2023-04-26T13:00:59.646Z,4.50
2023-04-26T13:03:27.905Z,3.17
2023-04-26T13:05:56.135Z,4.28
2023-04-26T13:08:25.767Z,4.20
2023-04-26T13:10:53.930Z,4.00
2023-04-26T13:13:32.326Z,3.22
2023-04-26T13:16:08.934Z,4.10
2023-04-26T13:18:37.192Z,2.70
2023-04-26T13:21:06.067Z,4.28
2023-04-26T13:23:35.687Z,3.05
2023-04-26T13:26:03.735Z,3.17
2023-04-26T13:28:31.973Z,3.40
2023-04-26T13:31:00.428Z,3.63
2023-04-26T13:33:29.041Z,3.60
2023-04-26T13:35:57.128Z,2.85
2023-04-26T13:38:26.218Z,3.20
2023-04-26T13:40:56.542Z,3.47
2023-04-26T13:43:25.172Z,3.13
2023-04-26T13:45:53.392Z,3.25
2023-04-26T13:48:21.527Z,3.78
2023-04-26T13:50:49.674Z,3.88
2023-04-26T13:53:19.784Z,4.90
2023-04-26T13:55:48.039Z,3.78
2023-04-26T13:58:18.364Z,3.22
2023-04-26T14:00:46.585Z,3.63
2023-04-26T14:03:15.303Z,3.47
2023-04-26T14:05:43.580Z,3.50
2023-04-26T14:08:12.822Z,3.05
2023-04-26T14:10:41.508Z,3.05
2023-04-26T14:13:09.618Z,3.42
2023-04-26T14:15:39.350Z,3.22
2023-04-26T14:18:07.587Z,3.20
2023-04-26T14:20:36.203Z,3.33
2023-04-26T14:23:04.524Z,2.80
2023-04-26T14:25:35.642Z,2.80
2023-04-26T14:28:04.435Z,2.58
2023-04-26T14:30:32.600Z,3.13
2023-04-26T14:33:02.200Z,3.20
2023-04-26T14:35:30.296Z,3.10
2023-04-26T14:37:58.339Z,2.90
2023-04-26T14:40:26.526Z,2.75
2023-04-26T14:42:54.702Z,3.10
2023-04-26T14:45:30.425Z,3.10
2023-04-26T14:48:07.719Z,3.03
2023-04-26T14:50:36.331Z,3.25
2023-04-26T14:53:04.589Z,4.70
2023-04-26T14:55:32.656Z,3.65
2023-04-26T14:58:00.818Z,2.90
2023-04-26T15:00:30.845Z,3.30
2023-04-26T15:02:59.168Z,4.07
2023-04-26T15:05:28.769Z,3.78
2023-04-26T15:07:57.086Z,3.50
2023-04-26T15:10:25.227Z,3.70
2023-04-26T15:12:53.380Z,3.72
2023-04-26T15:15:21.495Z,3.25
2023-04-26T15:17:49.709Z,3.80
2023-04-26T15:20:18.218Z,3.80
2023-04-26T15:22:47.853Z,4.30
2023-04-26T15:25:16.072Z,4.38
2023-04-26T15:27:45.961Z,4.40
2023-04-26T15:30:14.618Z,3.72
2023-04-26T15:32:43.179Z,3.72
2023-04-26T15:35:15.140Z,4.18
2023-04-26T15:37:44.233Z,3.95
2023-04-26T15:40:14.437Z,4.10
2023-04-26T15:42:42.526Z,4.00
2023-04-26T15:45:11.392Z,2.95
2023-04-26T15:47:39.533Z,3.58
2023-04-26T15:50:09.204Z,4.03
2023-04-26T15:52:39.547Z,3.90
2023-04-26T15:55:08.741Z,5.75
2023-04-26T15:57:38.423Z,9.25
2023-04-26T16:00:08.916Z,6.65
2023-04-26T16:02:37.583Z,5.22
2023-04-26T16:05:08.369Z,5.72
2023-04-26T16:07:38.856Z,5.10
2023-04-26T16:10:08.378Z,4.93
2023-04-26T16:12:39.780Z,4.30
2023-04-26T16:15:12.531Z,5.20
2023-04-26T16:17:40.769Z,5.20
2023-04-26T16:20:10.638Z,5.20
2023-04-26T16:22:38.866Z,5.47
2023-04-26T16:25:08.967Z,6.95
2023-04-26T16:27:37.262Z,7.88
2023-04-26T16:30:05.988Z,7.30
2023-04-26T16:32:35.633Z,6.88
2023-04-26T16:35:05.176Z,6.03
2023-04-26T16:37:33.491Z,5.30
2023-04-26T16:40:01.742Z,4.40
2023-04-26T16:42:31.441Z,4.82
2023-04-26T16:44:59.575Z,4.82
2023-04-26T16:47:27.658Z,4.72
2023-04-26T16:49:57.414Z,4.90
2023-04-26T16:52:25.712Z,4.90
2023-04-26T16:54:53.814Z,5.40
2023-04-26T16:57:21.958Z,4.80
2023-04-26T16:59:50.092Z,6.75
2023-04-26T17:02:18.602Z,5.60
2023-04-26T17:04:47.487Z,7.38
2023-04-26T17:07:17.421Z,8.20
2023-04-26T17:09:45.576Z,7.82
2023-04-26T17:12:13.731Z,9.57
2023-04-26T17:14:42.372Z,15.25
2023-04-26T17:17:10.453Z,15.90
2023-04-26T17:19:38.500Z,15.98
2023-04-26T17:22:07.459Z,16.63
2023-04-26T17:24:37.087Z,14.05
2023-04-26T17:27:05.428Z,14.00
2023-04-26T17:29:33.524Z,11.40
2023-04-26T17:32:01.637Z,11.40
2023-04-26T17:34:29.738Z,12.80
2023-04-26T17:36:57.821Z,15.68
2023-04-26T17:39:26.300Z,16.35
2023-04-26T17:41:55.830Z,18.95
2023-04-26T17:44:24.080Z,15.13
2023-04-26T17:46:52.115Z,15.20
2023-04-26T17:49:22.090Z,17.30
2023-04-26T17:51:50.279Z,15.18
2023-04-26T17:54:18.386Z,15.82
2023-04-26T17:56:46.575Z,15.80
2023-04-26T17:59:16.137Z,18.05
2023-04-26T18:01:44.324Z,17.45
2023-04-26T18:04:12.629Z,16.92
2023-04-26T18:06:41.216Z,17.85
2023-04-26T18:09:09.496Z,12.30
2023-04-26T18:11:37.605Z,13.88
2023-04-26T18:14:05.845Z,11.13
2023-04-26T18:16:37.109Z,10.35
2023-04-26T18:19:05.212Z,9.93
2023-04-26T18:21:33.271Z,13.52
2023-04-26T18:24:01.566Z,13.40
2023-04-26T18:26:30.085Z,13.98
2023-04-26T18:28:58.449Z,13.95
2023-04-26T18:31:26.984Z,13.77
2023-04-26T18:33:56.497Z,13.82
2023-04-26T18:36:24.595Z,15.38
2023-04-26T18:38:52.750Z,14.55
2023-04-26T18:41:21.427Z,16.58
2023-04-26T18:43:49.504Z,14.57
2023-04-26T18:46:17.638Z,16.23
2023-04-26T18:48:45.848Z,15.52
2023-04-26T18:51:15.573Z,16.23
2023-04-26T18:53:43.749Z,17.23
2023-04-26T18:56:11.794Z,16.65
2023-04-26T18:58:39.903Z,16.38
2023-04-26T19:01:08.077Z,17.38
2023-04-26T19:03:36.664Z,19.30
2023-04-26T19:06:10.490Z,18.98
2023-04-26T19:08:40.034Z,21.10
2023-04-26T19:11:11.717Z,21.65
2023-04-26T19:13:40.418Z,21.52
2023-04-26T19:16:09.207Z,20.70
2023-04-26T19:18:40.498Z,23.30
2023-04-26T19:21:09.521Z,59.60
2023-04-26T19:23:40.416Z,74.82
2023-04-26T19:26:12.217Z,123.45
2023-04-26T19:28:40.834Z,99.95
2023-04-26T19:31:09.038Z,88.13
2023-04-26T19:33:37.349Z,45.55
2023-04-26T19:36:05.762Z,21.88
2023-04-26T19:38:36.162Z,24.48
2023-04-26T19:41:05.614Z,40.00
2023-04-26T19:43:33.689Z,32.28
2023-04-26T19:46:01.819Z,25.60
2023-04-26T19:48:29.880Z,48.63
2023-04-26T19:50:57.966Z,42.75
2023-04-26T19:53:27.997Z,24.60
2023-04-26T19:55:56.127Z,17.65
2023-04-26T19:58:26.024Z,16.75
2023-04-26T20:00:54.135Z,16.33
2023-04-26T20:03:22.376Z,16.63
2023-04-26T20:05:50.597Z,20.45
2023-04-26T20:08:19.215Z,19.90
2023-04-26T20:10:47.333Z,20.48
2023-04-26T20:13:15.431Z,19.27
2023-04-26T20:15:44.966Z,21.52
2023-04-26T20:18:13.040Z,20.40
2023-04-26T20:20:41.221Z,18.88
2023-04-26T20:23:09.335Z,19.38
2023-04-26T20:25:37.541Z,18.75
2023-04-26T20:28:06.032Z,18.92
2023-04-26T20:30:34.434Z,18.27
2023-04-26T20:33:04.036Z,19.08
2023-04-26T20:35:32.172Z,21.08
2023-04-26T20:38:00.251Z,19.30
2023-04-26T20:40:28.463Z,17.65
2023-04-26T20:42:56.564Z,16.30
2023-04-26T20:45:25.338Z,12.77
2023-04-26T20:47:53.523Z,16.65
2023-04-26T20:50:23.459Z,14.45
2023-04-26T20:52:51.635Z,12.90
2023-04-26T20:55:19.723Z,13.23
2023-04-26T20:57:47.929Z,12.18
2023-04-26T21:00:16.541Z,11.40
2023-04-26T21:02:44.714Z,12.75
2023-04-26T21:05:13.014Z,11.13
2023-04-26T21:07:42.566Z,12.32
2023-04-26T21:10:11.427Z,10.60
2023-04-26T21:12:39.673Z,11.63
2023-04-26T21:15:09.262Z,12.13
2023-04-26T21:17:37.517Z,14.70
2023-04-26T21:20:06.909Z,15.35
2023-04-26T21:22:35.001Z,15.85
2023-04-26T21:25:05.061Z,16.08
2023-04-26T21:27:34.063Z,17.73
2023-04-26T21:30:02.189Z,17.38
2023-04-26T21:32:30.281Z,18.17
2023-04-26T21:34:58.421Z,18.58
2023-04-26T21:37:26.951Z,17.10
2023-04-26T21:39:55.053Z,17.50
2023-04-26T21:42:24.954Z,19.83
2023-04-26T21:44:53.152Z,19.77
2023-04-26T21:47:21.185Z,21.25
2023-04-26T21:49:49.385Z,19.80
2023-04-26T21:52:17.473Z,20.98
2023-04-26T21:54:45.900Z,19.55
2023-04-26T21:57:13.962Z,19.20
2023-04-26T21:59:43.932Z,20.80
2023-04-26T22:02:12.076Z,20.58
2023-04-26T22:04:40.235Z,17.23
2023-04-26T22:07:08.332Z,21.20
2023-04-26T22:09:36.596Z,15.75
2023-04-26T22:12:05.116Z,16.92
2023-04-26T22:14:33.205Z,17.40
2023-04-26T22:17:02.663Z,16.30
2023-04-26T22:19:30.796Z,18.10
2023-04-26T22:21:58.916Z,18.05
2023-04-26T22:24:27.130Z,18.48
2023-04-26T22:26:55.239Z,17.05
2023-04-26T22:29:23.377Z,15.90
2023-04-26T22:31:51.512Z,15.48
2023-04-26T22:34:21.509Z,16.15
2023-04-26T22:36:49.628Z,15.32
2023-04-26T22:39:17.805Z,15.00
2023-04-26T22:41:45.894Z,13.15
2023-04-26T22:44:15.051Z,12.48
2023-04-26T22:46:43.147Z,10.95
2023-04-26T22:49:11.521Z,10.65
2023-04-26T22:51:42.774Z,11.20
2023-04-26T22:54:14.180Z,11.55
2023-04-26T22:56:42.271Z,10.93
2023-04-26T22:59:10.877Z,11.75
2023-04-26T23:01:39.279Z,12.15
2023-04-26T23:04:07.419Z,11.27
2023-04-26T23:06:35.714Z,12.68
2023-04-26T23:09:05.398Z,12.60
2023-04-26T23:11:33.673Z,12.15
2023-04-26T23:14:02.286Z,14.52
2023-04-26T23:16:30.516Z,14.15
2023-04-26T23:18:58.635Z,12.40
2023-04-26T23:21:26.738Z,13.10
2023-04-26T23:23:54.991Z,12.00
2023-04-26T23:26:24.522Z,13.75
2023-04-26T23:28:52.775Z,12.43
2023-04-26T23:31:21.057Z,12.10
2023-04-26T23:33:49.706Z,12.70
2023-04-26T23:36:17.810Z,12.35
2023-04-26T23:38:46.000Z,13.35
2023-04-26T23:41:14.128Z,14.20
2023-04-26T23:43:43.611Z,13.73
2023-04-26T23:46:11.955Z,14.65
2023-04-26T23:48:40.085Z,14.10
2023-04-26T23:51:08.227Z,14.00
2023-04-26T23:53:36.349Z,14.80
2023-04-26T23:56:04.686Z,15.15
2023-04-26T23:58:32.817Z,15.63
